createdAt,value
2024-01-24T00:00:22.362Z,68.13
2024-01-24T00:01:22.530Z,68.23
2024-01-24T00:02:22.632Z,68.44
2024-01-24T00:03:22.926Z,68.57
2024-01-24T00:04:23.083Z,68.77
2024-01-24T00:05:23.193Z,68.88
2024-01-24T00:06:23.391Z,68.88
2024-01-24T00:07:23.541Z,69.08
2024-01-24T00:08:23.748Z,69.18
2024-01-24T00:09:23.947Z,69.29
2024-01-24T00:10:24.090Z,69.49
2024-01-24T00:11:24.299Z,69.69
2024-01-24T00:12:24.524Z,69.59
2024-01-24T00:13:24.616Z,69.79
2024-01-24T00:14:24.793Z,69.93
2024-01-24T00:15:24.989Z,70.03
2024-01-24T00:16:26.318Z,70.14
2024-01-24T00:17:25.342Z,70.23
2024-01-24T00:18:25.685Z,70.34
2024-01-24T00:19:25.854Z,70.44
2024-01-24T00:20:25.824Z,70.54
2024-01-24T00:21:26.014Z,70.75
2024-01-24T00:22:26.205Z,70.85
2024-01-24T00:23:26.412Z,70.95
2024-01-24T00:24:26.595Z,71.29
2024-01-24T00:25:26.769Z,71.26
2024-01-24T00:26:26.969Z,71.39
2024-01-24T00:27:27.137Z,71.39
2024-01-24T00:28:27.343Z,71.50
2024-01-24T00:29:27.496Z,71.59
2024-01-24T00:30:27.717Z,71.91
2024-01-24T00:31:27.842Z,71.91
2024-01-24T00:32:28.051Z,71.91
2024-01-24T00:33:28.314Z,72.11
2024-01-24T00:34:28.451Z,72.21
2024-01-24T00:35:28.579Z,72.21
2024-01-24T00:36:28.816Z,72.31
2024-01-24T00:37:28.965Z,72.52
2024-01-24T00:38:29.174Z,72.52
2024-01-24T00:39:29.356Z,72.72
2024-01-24T00:40:29.523Z,72.82
2024-01-24T00:41:29.743Z,72.92
2024-01-24T00:42:29.910Z,73.13
2024-01-24T00:43:30.148Z,73.13
2024-01-24T00:44:30.262Z,73.03
2024-01-24T00:45:30.527Z,73.33
2024-01-24T00:46:30.621Z,73.23
2024-01-24T00:47:30.839Z,73.33
2024-01-24T00:48:31.096Z,73.44
2024-01-24T00:49:31.303Z,73.54
2024-01-24T00:50:31.404Z,73.44
2024-01-24T00:51:31.632Z,73.54
2024-01-24T00:52:31.785Z,73.64
2024-01-24T00:53:31.949Z,73.64
2024-01-24T00:54:32.117Z,73.74
2024-01-24T00:55:32.275Z,74.15
2024-01-24T00:56:32.470Z,73.94
2024-01-24T00:57:32.690Z,74.15
2024-01-24T00:58:32.902Z,74.05
2024-01-24T00:59:33.031Z,74.05
2024-01-24T01:00:33.251Z,74.56
2024-01-24T01:01:33.436Z,74.46
2024-01-24T01:02:33.593Z,74.46
2024-01-24T01:03:33.889Z,74.46
2024-01-24T01:04:33.985Z,74.76
2024-01-24T01:05:34.258Z,74.56
2024-01-24T01:06:34.357Z,75.07
2024-01-24T01:07:34.521Z,74.97
2024-01-24T01:08:34.731Z,74.76
2024-01-24T01:09:34.953Z,74.87
2024-01-24T01:10:35.067Z,74.97
2024-01-24T01:11:35.259Z,75.48
2024-01-24T01:12:35.432Z,75.27
2024-01-24T01:13:35.618Z,75.27
2024-01-24T01:14:35.809Z,75.07
2024-01-24T01:15:35.972Z,75.48
2024-01-24T01:16:36.151Z,75.27
2024-01-24T01:17:36.374Z,75.27
2024-01-24T01:18:36.574Z,75.17
2024-01-24T01:19:36.798Z,75.37
2024-01-24T01:20:36.906Z,75.37
2024-01-24T01:21:37.194Z,75.99
2024-01-24T01:22:37.286Z,75.78
2024-01-24T01:23:37.450Z,76.19
2024-01-24T01:24:37.683Z,75.78
2024-01-24T01:25:37.849Z,75.78
2024-01-24T01:26:37.992Z,75.48
2024-01-24T01:27:38.284Z,75.99
2024-01-24T01:28:38.375Z,75.89
2024-01-24T01:29:38.545Z,75.99
2024-01-24T01:30:38.780Z,75.99
2024-01-24T01:31:38.921Z,75.99
2024-01-24T01:32:39.206Z,75.89
2024-01-24T01:33:39.437Z,76.09
2024-01-24T01:34:39.563Z,75.89
2024-01-24T01:35:39.712Z,76.09
2024-01-24T01:36:39.873Z,76.60
2024-01-24T01:37:40.053Z,76.29
2024-01-24T01:38:40.251Z,76.09
2024-01-24T01:39:40.493Z,75.99
2024-01-24T01:40:40.624Z,75.99
2024-01-24T01:41:40.785Z,76.70
2024-01-24T01:42:41.017Z,76.40
2024-01-24T01:43:41.197Z,76.60
2024-01-24T01:44:41.357Z,76.50
2024-01-24T01:45:41.577Z,76.29
2024-01-24T01:46:41.734Z,76.40
2024-01-24T01:47:42.007Z,76.40
2024-01-24T01:48:42.221Z,76.29
2024-01-24T01:49:42.386Z,76.29
2024-01-24T01:50:42.594Z,76.50
2024-01-24T01:51:42.690Z,76.36
2024-01-24T01:52:42.875Z,76.87
2024-01-24T01:53:43.029Z,76.60
2024-01-24T01:54:43.296Z,76.60
2024-01-24T01:55:43.395Z,76.67
2024-01-24T01:56:43.573Z,76.97
2024-01-24T01:57:43.847Z,76.87
2024-01-24T01:58:43.931Z,76.81
2024-01-24T01:59:44.133Z,76.67
2024-01-24T02:00:44.446Z,76.87
2024-01-24T02:01:44.560Z,76.67
2024-01-24T02:02:44.742Z,76.97
2024-01-24T02:03:45.091Z,76.67
2024-01-24T02:04:45.038Z,77.18
2024-01-24T02:05:45.270Z,76.97
2024-01-24T02:06:45.488Z,77.08
2024-01-24T02:07:45.668Z,77.18
2024-01-24T02:08:45.789Z,76.97
2024-01-24T02:09:46.011Z,77.18
2024-01-24T02:10:46.126Z,77.69
2024-01-24T02:11:46.310Z,77.18
2024-01-24T02:12:46.593Z,77.28
2024-01-24T02:13:46.660Z,77.18
2024-01-24T02:14:46.905Z,76.97
2024-01-24T02:15:47.072Z,77.28
2024-01-24T02:16:47.228Z,77.28
2024-01-24T02:17:47.421Z,77.08
2024-01-24T02:18:47.631Z,77.18
2024-01-24T02:19:47.780Z,77.59
2024-01-24T02:20:47.971Z,77.59
2024-01-24T02:21:48.236Z,77.18
2024-01-24T02:22:48.355Z,77.38
2024-01-24T02:23:48.526Z,77.69
2024-01-24T02:24:48.725Z,78.00
2024-01-24T02:25:48.908Z,78.00
2024-01-24T02:26:49.052Z,77.89
2024-01-24T02:27:49.260Z,77.48
2024-01-24T02:28:49.456Z,78.00
2024-01-24T02:29:49.620Z,77.89
2024-01-24T02:30:49.899Z,77.48
2024-01-24T02:31:50.004Z,77.59
2024-01-24T02:32:50.194Z,77.59
2024-01-24T02:33:50.413Z,77.69
2024-01-24T02:34:50.570Z,78.00
2024-01-24T02:35:50.734Z,78.20
2024-01-24T02:36:51.003Z,78.20
2024-01-24T02:37:51.094Z,78.09
2024-01-24T02:38:51.262Z,78.30
2024-01-24T02:39:51.494Z,77.79
2024-01-24T02:40:51.683Z,78.20
2024-01-24T02:41:51.815Z,78.20
2024-01-24T02:42:52.056Z,78.00
2024-01-24T02:43:52.216Z,78.50
2024-01-24T02:44:52.416Z,77.86
2024-01-24T02:45:52.723Z,78.30
2024-01-24T02:46:52.757Z,78.27
2024-01-24T02:47:52.962Z,78.06
2024-01-24T02:48:53.170Z,77.96
2024-01-24T02:49:53.462Z,78.57
2024-01-24T02:50:53.517Z,78.47
2024-01-24T02:51:53.768Z,78.37
2024-01-24T02:52:53.836Z,78.67
2024-01-24T02:53:54.028Z,78.16
2024-01-24T02:54:54.277Z,78.67
2024-01-24T02:55:54.430Z,78.47
2024-01-24T02:56:54.602Z,78.27
2024-01-24T02:57:54.881Z,78.47
2024-01-24T02:58:54.986Z,78.06
2024-01-24T02:59:55.266Z,77.75
2024-01-24T03:00:55.463Z,77.75
2024-01-24T03:01:55.544Z,77.65
2024-01-24T03:02:55.706Z,78.06
2024-01-24T03:03:55.972Z,77.86
2024-01-24T03:04:56.105Z,77.75
2024-01-24T03:05:56.318Z,78.77
2024-01-24T03:06:56.622Z,78.77
2024-01-24T03:07:56.602Z,78.37
2024-01-24T03:08:56.782Z,78.16
2024-01-24T03:09:56.968Z,78.43
2024-01-24T03:10:57.131Z,78.12
2024-01-24T03:11:57.333Z,78.12
2024-01-24T03:12:57.501Z,78.12
2024-01-24T03:13:57.677Z,78.94
2024-01-24T03:14:57.875Z,78.43
2024-01-24T03:15:58.094Z,78.23
2024-01-24T03:16:58.332Z,78.43
2024-01-24T03:17:58.593Z,78.02
2024-01-24T03:18:58.751Z,78.02
2024-01-24T03:19:58.845Z,78.64
2024-01-24T03:20:59.044Z,78.23
2024-01-24T03:21:59.344Z,78.12
2024-01-24T03:23:00.778Z,78.33
2024-01-24T03:23:59.624Z,78.12
2024-01-24T03:24:59.878Z,78.23
2024-01-24T03:26:00.009Z,77.92
2024-01-24T03:27:00.206Z,77.82
2024-01-24T03:28:00.450Z,78.33
2024-01-24T03:29:00.579Z,78.64
2024-01-24T03:30:00.813Z,78.80
2024-01-24T03:31:00.954Z,78.43
2024-01-24T03:32:01.126Z,78.09
2024-01-24T03:33:01.385Z,78.09
2024-01-24T03:34:01.588Z,78.09
2024-01-24T03:35:01.850Z,77.98
2024-01-24T03:36:01.881Z,77.68
2024-01-24T03:37:02.064Z,78.09
2024-01-24T03:38:02.229Z,77.89
2024-01-24T03:39:02.393Z,78.09
2024-01-24T03:40:02.616Z,78.19
2024-01-24T03:41:02.747Z,77.98
2024-01-24T03:42:02.949Z,77.98
2024-01-24T03:43:03.107Z,78.19
2024-01-24T03:44:03.360Z,77.98
2024-01-24T03:45:03.492Z,77.89
2024-01-24T03:46:03.671Z,77.78
2024-01-24T03:47:03.843Z,77.95
2024-01-24T03:48:04.058Z,78.16
2024-01-24T03:49:04.331Z,77.95
2024-01-24T03:50:04.396Z,78.05
2024-01-24T03:51:04.598Z,78.16
2024-01-24T03:52:04.858Z,77.85
2024-01-24T03:53:04.989Z,77.95
2024-01-24T03:54:05.206Z,77.95
2024-01-24T03:55:05.352Z,78.05
2024-01-24T03:56:05.547Z,78.36
2024-01-24T03:57:05.760Z,78.26
2024-01-24T03:58:05.929Z,77.95
2024-01-24T03:59:06.094Z,77.75
2024-01-24T04:00:06.287Z,78.12
2024-01-24T04:01:06.604Z,78.22
2024-01-24T04:02:08.950Z,77.81
2024-01-24T04:03:06.865Z,77.91
2024-01-24T04:04:07.160Z,78.02
2024-01-24T04:05:07.197Z,78.12
2024-01-24T04:06:07.428Z,77.91
2024-01-24T04:07:07.744Z,78.42
2024-01-24T04:08:07.728Z,78.12
2024-01-24T04:09:07.915Z,78.02
2024-01-24T04:10:08.110Z,78.22
2024-01-24T04:11:08.317Z,77.91
2024-01-24T04:12:08.490Z,78.42
2024-01-24T04:13:08.694Z,78.93
2024-01-24T04:14:08.866Z,78.42
2024-01-24T04:15:09.048Z,78.12
2024-01-24T04:16:09.289Z,78.02
2024-01-24T04:17:09.450Z,78.83
2024-01-24T04:18:09.737Z,78.19
2024-01-24T04:19:10.045Z,78.12
2024-01-24T04:20:09.994Z,77.98
2024-01-24T04:21:10.219Z,78.28
2024-01-24T04:22:10.354Z,78.49
2024-01-24T04:23:10.508Z,78.69
2024-01-24T04:24:10.773Z,78.59
2024-01-24T04:25:10.908Z,78.49
2024-01-24T04:26:11.074Z,78.89
2024-01-24T04:27:11.240Z,78.89
2024-01-24T04:28:11.443Z,78.49
2024-01-24T04:29:13.758Z,78.28
2024-01-24T04:30:11.946Z,78.59
2024-01-24T04:31:12.005Z,78.28
2024-01-24T04:32:12.200Z,78.80
2024-01-24T04:33:12.530Z,78.49
2024-01-24T04:34:12.610Z,78.49
2024-01-24T04:35:12.753Z,78.89
2024-01-24T04:36:12.927Z,79.20
2024-01-24T04:37:13.098Z,78.96
2024-01-24T04:38:13.297Z,79.06
2024-01-24T04:39:13.494Z,79.27
2024-01-24T04:40:13.636Z,78.96
2024-01-24T04:41:13.817Z,79.06
2024-01-24T04:42:16.888Z,79.06
2024-01-24T04:43:14.217Z,79.06
2024-01-24T04:44:14.412Z,78.96
2024-01-24T04:45:14.651Z,79.37
2024-01-24T04:46:14.781Z,79.47
2024-01-24T04:47:15.072Z,79.27
2024-01-24T04:48:15.352Z,79.37
2024-01-24T04:49:26.337Z,79.06
2024-01-24T04:50:16.612Z,78.76
2024-01-24T04:51:15.773Z,79.16
2024-01-24T04:52:15.969Z,79.37
2024-01-24T04:53:16.071Z,79.27
2024-01-24T04:54:16.280Z,78.96
2024-01-24T04:55:16.460Z,78.72
2024-01-24T04:56:16.661Z,78.66
2024-01-24T04:57:16.859Z,78.92
2024-01-24T04:58:17.968Z,78.82
2024-01-24T04:59:17.185Z,79.13
2024-01-24T05:00:17.395Z,78.82
2024-01-24T05:01:17.679Z,78.62
2024-01-24T05:02:17.758Z,79.02
2024-01-24T05:03:17.976Z,78.92
2024-01-24T05:04:18.265Z,78.82
2024-01-24T05:05:18.336Z,78.72
2024-01-24T05:06:18.600Z,78.62
2024-01-24T05:07:18.729Z,79.02
2024-01-24T05:08:18.853Z,79.13
2024-01-24T05:09:19.086Z,78.82
2024-01-24T05:10:19.249Z,79.02
2024-01-24T05:11:19.420Z,78.58
2024-01-24T05:12:19.637Z,78.62
2024-01-24T05:13:19.793Z,78.58
2024-01-24T05:14:19.992Z,78.38
2024-01-24T05:15:20.222Z,78.58
2024-01-24T05:16:20.366Z,78.48
2024-01-24T05:17:20.548Z,78.17
2024-01-24T05:18:20.878Z,78.48
2024-01-24T05:19:20.923Z,78.48
2024-01-24T05:20:21.100Z,78.89
2024-01-24T05:21:21.337Z,78.99
2024-01-24T05:22:21.460Z,78.78
2024-01-24T05:23:21.648Z,78.89
2024-01-24T05:24:21.860Z,78.78
2024-01-24T05:25:21.983Z,78.99
2024-01-24T05:26:22.167Z,78.99
2024-01-24T05:27:22.385Z,78.89
2024-01-24T05:28:22.565Z,78.68
2024-01-24T05:29:22.720Z,78.48
2024-01-24T05:30:34.514Z,78.89
2024-01-24T05:31:24.192Z,78.99
2024-01-24T05:32:23.347Z,79.09
2024-01-24T05:33:23.552Z,78.75
2024-01-24T05:34:23.867Z,78.89
2024-01-24T05:35:23.871Z,79.16
2024-01-24T05:36:24.087Z,79.25
2024-01-24T05:37:24.249Z,79.05
2024-01-24T05:38:24.462Z,79.36
2024-01-24T05:39:24.652Z,79.46
2024-01-24T05:40:24.832Z,78.95
2024-01-24T05:41:25.018Z,78.95
2024-01-24T05:42:25.206Z,79.25
2024-01-24T05:43:25.401Z,79.25
2024-01-24T05:44:25.593Z,79.25
2024-01-24T05:45:25.773Z,79.46
2024-01-24T05:46:25.946Z,79.36
2024-01-24T05:47:26.212Z,79.16
2024-01-24T05:48:26.450Z,79.36
2024-01-24T05:49:26.555Z,79.05
2024-01-24T05:50:26.667Z,78.85
2024-01-24T05:51:26.869Z,79.05
2024-01-24T05:52:27.013Z,79.16
2024-01-24T05:53:27.193Z,79.16
2024-01-24T05:54:27.424Z,79.16
2024-01-24T05:55:27.546Z,79.25
2024-01-24T05:56:27.739Z,79.86
2024-01-24T05:57:27.957Z,79.77
2024-01-24T05:58:28.141Z,79.77
2024-01-24T05:59:28.380Z,79.86
2024-01-24T06:00:28.689Z,79.77
2024-01-24T06:01:28.838Z,79.66
2024-01-24T06:02:28.858Z,79.86
2024-01-24T06:03:29.079Z,79.66
2024-01-24T06:04:29.393Z,79.86
2024-01-24T06:05:29.490Z,79.77
2024-01-24T06:06:29.750Z,79.86
2024-01-24T06:07:29.839Z,79.97
2024-01-24T06:08:29.950Z,80.17
2024-01-24T06:09:30.325Z,80.07
2024-01-24T06:10:30.309Z,80.17
2024-01-24T06:11:30.491Z,79.97
2024-01-24T06:12:30.691Z,80.13
2024-01-24T06:13:30.917Z,79.93
2024-01-24T06:14:31.067Z,80.17
2024-01-24T06:15:31.232Z,80.07
2024-01-24T06:16:31.418Z,80.27
2024-01-24T06:17:33.306Z,80.24
2024-01-24T06:18:31.872Z,79.97
2024-01-24T06:19:32.092Z,79.86
2024-01-24T06:20:32.220Z,79.86
2024-01-24T06:21:32.424Z,80.03
2024-01-24T06:22:32.600Z,79.93
2024-01-24T06:23:32.818Z,79.93
2024-01-24T06:24:32.991Z,80.13
2024-01-24T06:25:33.144Z,80.03
2024-01-24T06:26:33.315Z,79.93
2024-01-24T06:27:33.527Z,79.72
2024-01-24T06:28:33.724Z,79.72
2024-01-24T06:30:15.804Z,79.72
2024-01-24T06:30:35.130Z,79.63
2024-01-24T06:31:34.248Z,79.83
2024-01-24T06:32:34.476Z,79.83
2024-01-24T06:33:34.780Z,79.72
2024-01-24T06:34:34.860Z,79.42
2024-01-24T06:35:34.985Z,79.32
2024-01-24T06:36:35.243Z,79.52
2024-01-24T06:37:35.356Z,79.63
2024-01-24T06:38:35.571Z,79.52
2024-01-24T06:39:35.792Z,79.72
2024-01-24T06:40:35.932Z,79.52
2024-01-24T06:41:36.119Z,79.93
2024-01-24T06:42:36.353Z,80.33
2024-01-24T06:43:36.515Z,80.54
2024-01-24T06:44:36.686Z,80.54
2024-01-24T06:45:36.890Z,80.54
2024-01-24T06:46:37.035Z,80.94
2024-01-24T06:47:37.293Z,80.74
2024-01-24T06:48:37.541Z,80.74
2024-01-24T06:49:37.706Z,80.84
2024-01-24T06:50:37.775Z,81.15
2024-01-24T06:51:37.992Z,80.84
2024-01-24T06:52:38.161Z,81.15
2024-01-24T06:53:38.366Z,81.35
2024-01-24T06:54:38.568Z,81.21
2024-01-24T06:55:38.761Z,81.35
2024-01-24T06:56:38.956Z,81.56
2024-01-24T06:57:39.188Z,81.35
2024-01-24T06:58:39.377Z,81.45
2024-01-24T06:59:39.520Z,81.35
2024-01-24T07:00:39.860Z,81.56
2024-01-24T07:01:40.000Z,81.15
2024-01-24T07:02:40.175Z,81.05
2024-01-24T07:03:40.352Z,80.64
2024-01-24T07:04:40.759Z,80.64
2024-01-24T07:05:40.616Z,80.84
2024-01-24T07:06:40.876Z,81.15
2024-01-24T07:07:40.981Z,80.84
2024-01-24T07:08:41.896Z,80.40
2024-01-24T07:09:41.358Z,80.30
2024-01-24T07:10:41.492Z,80.91
2024-01-24T07:11:41.684Z,80.64
2024-01-24T07:12:41.900Z,80.84
2024-01-24T07:13:42.065Z,80.71
2024-01-24T07:14:42.226Z,80.80
2024-01-24T07:15:42.425Z,80.44
2024-01-24T07:16:42.619Z,80.54
2024-01-24T07:17:42.803Z,80.33
2024-01-24T07:18:43.056Z,80.30
2024-01-24T07:19:43.180Z,79.93
2024-01-24T07:20:43.269Z,80.24
2024-01-24T07:21:43.497Z,79.99
2024-01-24T07:22:43.641Z,80.03
2024-01-24T07:23:43.837Z,80.10
2024-01-24T07:24:44.029Z,80.30
2024-01-24T07:25:44.179Z,80.30
2024-01-24T07:26:44.341Z,80.10
2024-01-24T07:27:44.592Z,80.19
2024-01-24T07:28:44.753Z,79.79
2024-01-24T07:29:44.903Z,79.79
2024-01-24T07:30:45.128Z,79.49
2024-01-24T07:31:45.313Z,79.28
2024-01-24T07:32:45.511Z,79.38
2024-01-24T07:33:45.712Z,79.69
2024-01-24T07:34:45.977Z,79.59
2024-01-24T07:35:45.974Z,79.69
2024-01-24T07:36:46.172Z,79.28
2024-01-24T07:37:46.326Z,79.49
2024-01-24T07:38:46.541Z,79.28
2024-01-24T07:39:46.766Z,78.88
2024-01-24T07:40:46.879Z,79.08
2024-01-24T07:41:47.038Z,79.08
2024-01-24T07:42:47.270Z,79.18
2024-01-24T07:43:47.432Z,79.08
2024-01-24T07:44:47.582Z,78.78
2024-01-24T07:45:47.814Z,78.98
2024-01-24T07:46:47.942Z,78.88
2024-01-24T07:47:48.139Z,78.67
2024-01-24T07:48:48.495Z,78.88
2024-01-24T07:49:48.644Z,78.88
2024-01-24T07:50:48.693Z,78.67
2024-01-24T07:51:50.429Z,78.78
2024-01-24T07:52:49.085Z,78.67
2024-01-24T07:53:49.285Z,78.67
2024-01-24T07:54:49.491Z,78.64
2024-01-24T07:55:56.104Z,78.53
2024-01-24T07:56:50.814Z,78.23
2024-01-24T07:57:50.033Z,78.13
2024-01-24T07:58:50.381Z,78.03
2024-01-24T07:59:50.378Z,78.09
2024-01-24T08:00:50.669Z,77.79
2024-01-24T08:01:51.020Z,77.38
2024-01-24T08:02:51.728Z,77.38
2024-01-24T08:03:51.504Z,77.04
2024-01-24T08:04:51.447Z,77.45
2024-01-24T08:05:51.476Z,77.34
2024-01-24T08:06:51.658Z,76.94
2024-01-24T08:07:51.808Z,76.64
2024-01-24T08:08:52.002Z,76.74
2024-01-24T08:09:52.193Z,76.84
2024-01-24T08:10:52.358Z,76.43
2024-01-24T08:11:52.528Z,76.43
2024-01-24T08:12:52.837Z,76.64
2024-01-24T08:13:52.939Z,76.09
2024-01-24T08:14:53.129Z,75.69
2024-01-24T08:15:53.346Z,75.69
2024-01-24T08:16:53.470Z,75.59
2024-01-24T08:17:53.701Z,75.35
2024-01-24T08:18:53.908Z,75.15
2024-01-24T08:19:54.205Z,74.71
2024-01-24T08:20:54.234Z,74.40
2024-01-24T08:21:54.528Z,74.60
2024-01-24T08:22:54.653Z,74.07
2024-01-24T08:23:54.763Z,73.46
2024-01-24T08:24:54.977Z,73.32
2024-01-24T08:25:55.109Z,73.12
2024-01-24T08:26:55.365Z,73.02
2024-01-24T08:27:55.557Z,73.12
2024-01-24T08:28:55.677Z,72.81
2024-01-24T08:29:55.845Z,73.28
2024-01-24T08:30:56.117Z,72.88
2024-01-24T08:31:56.234Z,72.28
2024-01-24T08:32:56.473Z,72.58
2024-01-24T08:33:56.773Z,71.97
2024-01-24T08:34:56.913Z,71.26
2024-01-24T08:35:56.993Z,71.17
2024-01-24T08:36:57.239Z,70.15
2024-01-24T08:37:57.391Z,69.71
2024-01-24T08:38:57.538Z,69.92
2024-01-24T08:39:57.830Z,69.21
2024-01-24T08:40:57.914Z,69.62
2024-01-24T08:41:58.094Z,69.42
2024-01-24T08:42:58.363Z,69.51
2024-01-24T08:43:58.491Z,69.01
2024-01-24T08:44:58.647Z,68.57
2024-01-24T08:45:58.877Z,68.77
2024-01-24T08:46:58.989Z,68.98
2024-01-24T08:47:59.270Z,68.57
2024-01-24T08:48:59.483Z,68.13
2024-01-24T08:49:59.729Z,68.54
2024-01-24T08:50:59.735Z,68.44
2024-01-24T08:52:00.089Z,68.13
2024-01-24T08:53:00.097Z,67.93
2024-01-24T08:54:00.286Z,67.63
2024-01-24T08:55:00.760Z,67.50
2024-01-24T08:56:00.690Z,67.40
2024-01-24T08:57:00.856Z,66.76
2024-01-24T08:58:01.139Z,66.36
2024-01-24T08:59:01.234Z,66.13
2024-01-24T09:00:01.440Z,65.32
2024-01-24T09:01:01.734Z,65.39
2024-01-24T09:02:01.813Z,64.98
2024-01-24T09:03:01.983Z,64.78
2024-01-24T09:04:02.310Z,64.89
2024-01-24T09:05:02.424Z,64.69
2024-01-24T09:06:02.625Z,64.48
2024-01-24T09:07:02.800Z,64.48
2024-01-24T09:08:02.942Z,64.48
2024-01-24T09:09:03.135Z,64.28
2024-01-24T09:10:03.255Z,64.58
2024-01-24T09:11:03.400Z,64.38
2024-01-24T09:12:03.587Z,63.67
2024-01-24T09:13:03.842Z,63.78
2024-01-24T09:14:03.982Z,64.18
2024-01-24T09:15:04.147Z,64.18
2024-01-24T09:16:04.413Z,64.51
2024-01-24T09:17:04.506Z,64.41
2024-01-24T09:18:04.924Z,64.21
2024-01-24T09:19:04.979Z,64.72
2024-01-24T09:20:05.178Z,64.61
2024-01-24T09:21:05.251Z,64.75
2024-01-24T09:22:05.432Z,64.64
2024-01-24T09:23:05.601Z,64.44
2024-01-24T09:24:05.783Z,64.87
2024-01-24T09:25:08.109Z,65.08
2024-01-24T09:26:06.142Z,64.87
2024-01-24T09:27:06.318Z,65.08
2024-01-24T09:28:06.589Z,65.18
2024-01-24T09:29:06.725Z,65.18
2024-01-24T09:30:06.894Z,65.58
2024-01-24T09:31:07.058Z,65.88
2024-01-24T09:32:07.245Z,66.02
2024-01-24T09:33:07.553Z,66.22
2024-01-24T09:34:07.767Z,66.42
2024-01-24T09:35:07.983Z,66.62
2024-01-24T09:36:07.964Z,66.93
2024-01-24T09:37:08.150Z,66.82
2024-01-24T09:38:08.316Z,66.93
2024-01-24T09:39:08.483Z,67.23
2024-01-24T09:40:08.878Z,67.46
2024-01-24T09:41:08.866Z,67.56
2024-01-24T09:42:09.024Z,67.46
2024-01-24T09:43:09.262Z,67.56
2024-01-24T09:44:09.412Z,67.76
2024-01-24T09:45:09.566Z,67.97
2024-01-24T09:46:09.741Z,67.86
2024-01-24T09:47:09.946Z,68.17
2024-01-24T09:48:10.202Z,68.17
2024-01-24T09:49:10.385Z,68.07
2024-01-24T09:50:10.541Z,68.17
2024-01-24T09:51:10.638Z,68.37
2024-01-24T09:52:10.881Z,68.37
2024-01-24T09:53:11.017Z,68.98
2024-01-24T09:54:11.234Z,68.47
2024-01-24T09:55:11.426Z,66.86
2024-01-24T09:56:11.608Z,66.02
2024-01-24T09:57:11.879Z,65.78
2024-01-24T09:58:13.524Z,65.68
2024-01-24T09:59:12.111Z,65.25
2024-01-24T10:00:12.282Z,65.05
2024-01-24T10:01:12.560Z,64.41
2024-01-24T10:02:12.729Z,63.57
2024-01-24T10:03:12.879Z,63.67
2024-01-24T10:04:13.067Z,62.94
2024-01-24T10:05:13.236Z,62.41
2024-01-24T10:06:13.556Z,61.98
2024-01-24T10:07:13.729Z,61.34
2024-01-24T10:08:13.790Z,60.81
2024-01-24T10:09:13.963Z,60.51
2024-01-24T10:10:14.258Z,59.98
2024-01-24T10:11:14.339Z,59.88
2024-01-24T10:12:14.520Z,59.65
2024-01-24T10:13:14.662Z,59.34
2024-01-24T10:14:14.842Z,59.34
2024-01-24T10:15:15.126Z,58.94
2024-01-24T10:16:15.233Z,58.75
2024-01-24T10:17:15.411Z,58.62
2024-01-24T10:18:15.614Z,58.42
2024-01-24T10:19:15.851Z,58.11
2024-01-24T10:20:15.972Z,58.31
2024-01-24T10:21:16.144Z,58.11
2024-01-24T10:22:16.409Z,58.31
2024-01-24T10:23:16.513Z,58.11
2024-01-24T10:24:16.694Z,57.71
2024-01-24T10:25:16.948Z,57.71
2024-01-24T10:26:17.725Z,57.81
2024-01-24T10:27:17.372Z,57.61
2024-01-24T10:28:17.523Z,57.48
2024-01-24T10:29:17.630Z,57.51
2024-01-24T10:30:17.996Z,57.28
2024-01-24T10:31:18.022Z,57.18
2024-01-24T10:32:18.199Z,57.15
2024-01-24T10:33:19.588Z,56.63
2024-01-24T10:34:18.673Z,56.10
2024-01-24T10:35:18.974Z,55.80
2024-01-24T10:36:26.948Z,55.40
2024-01-24T10:37:20.266Z,55.07
2024-01-24T10:38:19.332Z,54.77
2024-01-24T10:39:19.515Z,54.37
2024-01-24T10:40:19.662Z,54.47
2024-01-24T10:41:19.846Z,54.50
2024-01-24T10:42:20.238Z,54.39
2024-01-24T10:43:20.204Z,54.70
2024-01-24T10:44:20.416Z,54.82
2024-01-24T10:45:20.611Z,54.72
2024-01-24T10:46:20.793Z,55.13
2024-01-24T10:47:21.013Z,55.35
2024-01-24T10:48:21.269Z,55.25
2024-01-24T10:49:21.420Z,55.45
2024-01-24T10:50:21.524Z,55.38
2024-01-24T10:51:21.736Z,55.68
2024-01-24T10:52:21.924Z,55.58
2024-01-24T10:53:22.094Z,55.71
2024-01-24T10:54:22.289Z,55.71
2024-01-24T10:55:22.448Z,55.91
2024-01-24T10:56:22.623Z,56.84
2024-01-24T10:57:22.820Z,57.14
2024-01-24T10:58:23.013Z,56.93
2024-01-24T10:59:23.209Z,56.43
2024-01-24T11:00:23.468Z,56.74
2024-01-24T11:01:23.672Z,56.66
2024-01-24T11:02:23.772Z,56.36
2024-01-24T11:03:24.200Z,56.26
2024-01-24T11:04:24.214Z,56.26
2024-01-24T11:05:24.387Z,56.19
2024-01-24T11:06:24.573Z,56.09
2024-01-24T11:07:24.704Z,56.29
2024-01-24T11:08:35.978Z,56.29
2024-01-24T11:09:26.109Z,56.29
2024-01-24T11:10:25.250Z,56.41
2024-01-24T11:11:25.429Z,56.51
2024-01-24T11:12:25.639Z,56.31
2024-01-24T11:13:25.809Z,56.51
2024-01-24T11:14:26.000Z,56.51
2024-01-24T11:15:26.221Z,56.54
2024-01-24T11:16:26.392Z,56.92
2024-01-24T11:17:26.544Z,56.34
2024-01-24T11:18:26.867Z,56.54
2024-01-24T11:19:26.991Z,56.34
2024-01-24T11:20:27.096Z,56.34
2024-01-24T11:21:27.322Z,56.14
2024-01-24T11:22:30.580Z,56.95
2024-01-24T11:23:27.684Z,56.47
2024-01-24T11:24:27.821Z,56.77
2024-01-24T11:25:27.995Z,56.37
2024-01-24T11:26:28.201Z,56.67
2024-01-24T11:27:28.438Z,56.67
2024-01-24T11:28:28.571Z,56.80
2024-01-24T11:29:28.758Z,56.70
2024-01-24T11:30:28.966Z,56.60
2024-01-24T11:31:29.133Z,56.90
2024-01-24T11:32:29.355Z,56.80
2024-01-24T11:33:29.650Z,56.80
2024-01-24T11:34:29.782Z,56.72
2024-01-24T11:35:29.831Z,57.63
2024-01-24T11:36:30.040Z,56.82
2024-01-24T11:37:30.265Z,56.62
2024-01-24T11:38:31.551Z,57.03
2024-01-24T11:39:30.615Z,57.73
2024-01-24T11:40:30.760Z,57.53
2024-01-24T11:41:30.958Z,57.53
2024-01-24T11:42:31.171Z,57.23
2024-01-24T11:43:33.766Z,56.82
2024-01-24T11:44:32.457Z,56.82
2024-01-24T11:45:31.653Z,57.15
2024-01-24T11:46:31.814Z,57.43
2024-01-24T11:47:32.041Z,57.15
2024-01-24T11:48:32.376Z,57.65
2024-01-24T11:49:32.446Z,57.15
2024-01-24T11:50:33.490Z,57.12
2024-01-24T11:51:32.782Z,57.12
2024-01-24T11:52:32.902Z,56.80
2024-01-24T11:53:33.077Z,56.37
2024-01-24T11:54:33.328Z,55.96
2024-01-24T11:55:33.448Z,55.76
2024-01-24T11:56:33.700Z,55.74
2024-01-24T11:57:33.899Z,55.41
2024-01-24T11:58:34.028Z,56.49
2024-01-24T11:59:34.196Z,56.86
2024-01-24T12:00:34.399Z,56.41
2024-01-24T12:01:34.634Z,55.88
2024-01-24T12:02:34.728Z,55.55
2024-01-24T12:03:35.025Z,54.22
2024-01-24T12:04:35.215Z,54.00
2024-01-24T12:05:35.264Z,53.37
2024-01-24T12:06:35.539Z,52.52
2024-01-24T12:07:35.723Z,52.29
2024-01-24T12:08:35.804Z,51.87
2024-01-24T12:09:35.995Z,51.45
2024-01-24T12:10:36.164Z,50.99
2024-01-24T12:11:36.375Z,50.47
2024-01-24T12:12:36.601Z,49.95
2024-01-24T12:13:36.725Z,48.83
2024-01-24T12:14:36.924Z,48.80
2024-01-24T12:15:37.152Z,47.89
2024-01-24T12:16:37.291Z,47.96
2024-01-24T12:17:40.142Z,47.66
2024-01-24T12:18:37.895Z,47.54
2024-01-24T12:19:37.932Z,46.45
2024-01-24T12:20:38.021Z,46.95
2024-01-24T12:21:38.214Z,46.92
2024-01-24T12:22:38.366Z,46.42
2024-01-24T12:23:38.598Z,46.62
2024-01-24T12:24:38.804Z,46.72
2024-01-24T12:25:38.960Z,45.85
2024-01-24T12:26:40.625Z,46.05
2024-01-24T12:27:39.355Z,46.55
2024-01-24T12:28:39.475Z,46.84
2024-01-24T12:29:39.668Z,46.97
2024-01-24T12:30:39.916Z,46.27
2024-01-24T12:31:40.036Z,46.79
2024-01-24T12:32:40.237Z,46.00
2024-01-24T12:33:40.517Z,47.21
2024-01-24T12:34:40.669Z,46.42
2024-01-24T12:35:40.768Z,46.64
2024-01-24T12:36:41.011Z,46.64
2024-01-24T12:37:41.122Z,46.26
2024-01-24T12:38:41.325Z,46.19
2024-01-24T12:39:41.492Z,46.38
2024-01-24T12:40:41.648Z,46.91
2024-01-24T12:41:41.841Z,47.72
2024-01-24T12:42:42.284Z,48.22
2024-01-24T12:43:42.229Z,48.05
2024-01-24T12:44:42.407Z,47.95
2024-01-24T12:45:42.685Z,48.67
2024-01-24T12:46:42.761Z,48.47
2024-01-24T12:47:42.974Z,47.87
2024-01-24T12:48:43.328Z,47.99
2024-01-24T12:49:43.491Z,49.29
2024-01-24T12:50:43.512Z,49.29
2024-01-24T12:51:43.698Z,48.42
2024-01-24T12:52:44.100Z,48.82
2024-01-24T12:53:44.051Z,49.14
2024-01-24T12:54:44.293Z,49.74